Time;durP1;ratioP1;P1;durP2;ratioP2;P2;SDS_P1;SDS_P2;PMS_P1;PMS_P2;Temp;Humidity;BMP_temperature;BMP_pressure;BME280_temperature;BME280_humidity;BME280_pressure;Samples;Min_cycle;Max_cycle;Signal;HPM_P1;HPM_P2
2022/04/26 03:37:41;;;;;;;12.57;8.60;;;;;;;11.02;76.48;98450.16;5090526;28;39451;-76
2022/04/26 03:40:10;;;;;;;15.70;9.63;;;;;;;11.03;76.60;98458.00;5090581;28;42151;-75
2022/04/26 03:42:39;;;;;;;14.30;9.07;;;;;;;11.05;76.43;98444.66;5091529;28;44195;-76
2022/04/26 03:45:07;;;;;;;13.63;8.50;;;;;;;11.06;76.29;98452.50;5090524;28;43160;-76
2022/04/26 03:47:34;;;;;;;11.03;7.87;;;;;;;11.06;76.27;98452.50;5073409;28;38463;-76
2022/04/26 03:50:03;;;;;;;13.07;8.63;;;;;;;11.07;76.47;98456.00;5090618;28;41980;-76
2022/04/26 03:52:31;;;;;;;16.47;10.03;;;;;;;11.08;76.43;98458.53;5090204;28;41718;-76
2022/04/26 03:54:58;;;;;;;12.37;8.60;;;;;;;11.08;76.52;98458.53;5090140;28;43790;-76
2022/04/26 03:57:26;;;;;;;17.47;11.17;;;;;;;11.10;76.29;98461.94;5073058;28;41226;-76
2022/04/26 03:59:54;;;;;;;12.50;8.47;;;;;;;11.07;76.07;98454.19;5091585;28;41925;-76
2022/04/26 04:02:22;;;;;;;12.03;8.30;;;;;;;11.12;75.84;98460.03;5073170;28;43019;-76
2022/04/26 04:04:49;;;;;;;12.60;8.87;;;;;;;11.14;76.20;98458.09;5090818;28;41634;-76
2022/04/26 04:07:18;;;;;;;11.20;8.03;;;;;;;11.09;76.24;98452.28;5093912;28;40116;-76
2022/04/26 04:09:46;;;;;;;14.57;9.63;;;;;;;11.06;76.69;98452.50;5095362;28;41857;-76
2022/04/26 04:12:13;;;;;;;15.20;9.93;;;;;;;10.97;77.11;98453.16;5089457;28;41909;-76
2022/04/26 04:14:41;;;;;;;16.23;9.90;;;;;;;10.96;77.33;98454.09;5122082;27;43329;-76
2022/04/26 04:17:09;;;;;;;14.17;10.00;;;;;;;10.83;77.07;98434.72;5116850;27;39927;-76
2022/04/26 04:19:36;;;;;;;16.87;10.13;;;;;;;10.90;77.49;98451.03;5093293;28;40661;-76
2022/04/26 04:22:04;;;;;;;13.80;9.70;;;;;;;10.86;77.71;98450.41;5094749;28;43796;-76
2022/04/26 04:24:33;;;;;;;14.10;8.97;;;;;;;10.87;77.33;98459.22;5079172;28;41287;-75
2022/04/26 04:27:01;;;;;;;14.00;8.73;;;;;;;10.87;77.59;98460.06;5093678;28;40923;-76
2022/04/26 04:29:28;;;;;;;14.97;9.47;;;;;;;10.86;77.44;98463.66;5076733;28;41545;-76
2022/04/26 04:31:56;;;;;;;14.70;10.10;;;;;;;10.85;77.87;98463.75;5093041;28;43166;-76
2022/04/26 04:34:23;;;;;;;15.27;9.10;;;;;;;10.85;77.72;98464.59;5094776;28;43205;-76
2022/04/26 04:36:52;;;;;;;15.03;8.60;;;;;;;10.79;78.25;98446.47;5093509;28;40069;-76
2022/04/26 04:39:20;;;;;;;13.10;8.50;;;;;;;10.86;78.12;98465.47;5093826;28;41593;-76
2022/04/26 04:41:49;;;;;;;14.83;9.03;;;;;;;10.69;78.01;98442.78;5106209;28;43824;-75
2022/04/26 04:44:18;;;;;;;11.40;8.23;;;;;;;10.83;78.14;98461.22;5112737;28;43957;-76
2022/04/26 04:46:46;;;;;;;14.33;8.70;;;;;;;10.85;78.33;98469.91;5111335;27;41781;-76
2022/04/26 04:49:16;;;;;;;15.37;9.23;;;;;;;10.84;78.11;98467.38;5116531;27;40827;-77
2022/04/26 04:51:46;;;;;;;13.40;8.73;;;;;;;10.84;78.42;98472.66;5095893;28;42597;-76
2022/04/26 04:54:13;;;;;;;13.37;8.60;;;;;;;10.83;78.46;98473.59;5113201;28;42688;-75
2022/04/26 04:56:42;;;;;;;12.90;8.57;;;;;;;10.80;78.71;98466.72;5114261;28;41020;-76
2022/04/26 04:59:11;;;;;;;13.73;9.20;;;;;;;10.82;78.75;98482.50;5130652;27;41706;-76
2022/04/26 05:01:39;;;;;;;13.57;9.60;;;;;;;10.80;78.84;98482.59;5112718;28;41893;-77
2022/04/26 05:04:07;;;;;;;16.57;10.53;;;;;;;10.76;78.99;98481.97;5130044;27;42413;-75
2022/04/26 05:06:35;;;;;;;14.00;10.17;;;;;;;10.76;79.48;98481.97;5096214;28;39027;-74
2022/04/26 05:09:02;;;;;;;16.37;9.20;;;;;;;10.73;79.85;98484.00;5113044;28;42685;-75
2022/04/26 05:11:30;;;;;;;15.77;10.13;;;;;;;10.72;79.58;98490.25;5096114;28;41353;-75
2022/04/26 05:13:57;;;;;;;15.40;10.30;;;;;;;10.74;79.94;98489.19;5113764;28;41828;-74
2022/04/26 05:16:27;;;;;;;14.13;9.40;;;;;;;10.69;80.08;98486.00;5096028;28;40052;-75
2022/04/26 05:18:54;;;;;;;16.67;10.33;;;;;;;10.72;80.18;98495.53;5112464;28;42486;-74
2022/04/26 05:21:22;;;;;;;14.87;10.73;;;;;;;10.68;80.51;98491.41;5110012;28;42672;-74
2022/04/26 05:26:36;;;;;;;14.63;9.97;;;;;;;10.59;80.73;98484.09;5112769;28;38956;-75
2022/04/26 05:29:05;;;;;;;13.23;9.13;;;;;;;10.64;80.58;98493.41;5095683;28;41025;-75
2022/04/26 05:31:35;;;;;;;15.17;9.13;;;;;;;10.67;80.28;98495.00;5112837;28;41681;-75
2022/04/26 05:34:02;;;;;;;13.80;9.40;;;;;;;10.69;80.62;98495.75;5095803;28;43680;-75
2022/04/26 05:36:31;;;;;;;15.07;9.20;;;;;;;10.64;80.51;98484.63;5112741;28;41853;-75
2022/04/26 05:38:59;;;;;;;13.87;9.50;;;;;;;10.76;80.69;98497.00;5113013;28;41682;-75
2022/04/26 05:41:29;;;;;;;13.97;8.83;;;;;;;10.72;80.42;98487.59;5112542;28;42817;-75
2022/04/26 05:43:57;;;;;;;14.53;10.07;;;;;;;10.72;80.53;98485.81;5095535;28;42964;-73
2022/04/26 05:46:25;;;;;;;13.77;9.50;;;;;;;10.79;80.50;98504.75;5114161;28;40204;-74
2022/04/26 05:48:54;;;;;;;12.73;8.60;;;;;;;10.84;80.42;98500.00;5114077;28;43828;-73
2022/04/26 05:51:23;;;;;;;14.13;9.17;;;;;;;10.90;80.32;98498.72;5112305;28;42698;-74
2022/04/26 05:53:50;;;;;;;12.90;9.00;;;;;;;10.91;80.35;98495.94;5095083;28;41267;-74
2022/04/26 05:56:18;;;;;;;14.10;9.87;;;;;;;10.95;79.96;98500.09;5114021;28;40776;-74
2022/04/26 05:58:46;;;;;;;15.37;10.07;;;;;;;10.98;80.27;98505.19;5094865;28;41876;-74
2022/04/26 06:01:14;;;;;;;15.80;8.93;;;;;;;11.02;80.36;98508.44;5111713;28;42804;-74
2022/04/26 06:03:42;;;;;;;12.63;8.37;;;;;;;11.03;79.79;98505.69;5112775;28;42373;-73
2022/04/26 06:06:12;;;;;;;13.43;9.33;;;;;;;11.07;79.98;98509.84;5113765;28;39872;-74
2022/04/26 06:08:40;;;;;;;13.23;9.40;;;;;;;11.11;79.78;98508.69;5111415;28;41889;-73
2022/04/26 06:11:08;;;;;;;13.37;8.40;;;;;;;11.08;79.53;98503.59;5113689;28;43595;-74
2022/04/26 06:13:35;;;;;;;11.83;7.83;;;;;;;11.21;79.55;98514.16;5111986;28;42760;-74
2022/04/26 06:16:04;;;;;;;12.23;8.50;;;;;;;11.24;79.78;98515.78;5112122;28;40151;-74
2022/04/26 06:18:33;;;;;;;10.97;7.53;;;;;;;11.14;79.46;98508.44;5095024;28;42301;-74
2022/04/26 06:21:01;;;;;;;11.67;8.30;;;;;;;11.18;80.00;98518.84;5112797;27;41709;-74
2022/04/26 06:23:30;;;;;;;12.33;8.60;;;;;;;11.15;80.02;98518.09;5117615;27;41441;-74
2022/04/26 06:25:59;;;;;;;11.30;8.03;;;;;;;11.07;80.13;98517.78;5094972;28;39996;-74
2022/04/26 06:28:27;;;;;;;9.53;7.13;;;;;;;11.02;80.51;98519.06;5093565;28;41747;-74
2022/04/26 06:30:56;;;;;;;11.00;7.50;;;;;;;11.00;80.33;98518.34;5113138;28;42867;-74
2022/04/26 06:33:24;;;;;;;10.90;7.10;;;;;;;11.02;80.72;98521.69;5111376;28;42280;-74
2022/04/26 06:35:51;;;;;;;12.20;8.23;;;;;;;11.04;80.89;98518.00;5113329;28;40081;-75
2022/04/26 06:38:19;;;;;;;10.90;7.83;;;;;;;11.06;80.34;98521.38;5111963;28;42535;-74
2022/04/26 06:40:48;;;;;;;12.63;8.40;;;;;;;11.12;80.58;98520.97;5110786;28;43724;-75
2022/04/26 06:43:16;;;;;;;11.27;8.87;;;;;;;11.14;80.10;98524.34;5112813;28;43218;-75
2022/04/26 06:45:44;;;;;;;13.00;8.10;;;;;;;11.15;80.50;98523.38;5091730;28;40491;-75
2022/04/26 06:48:12;;;;;;;11.93;8.30;;;;;;;11.12;79.94;98528.94;5074171;28;40677;-75
2022/04/26 06:50:40;;;;;;;12.93;8.67;;;;;;;11.09;80.11;98515.88;5103104;28;42526;-76
2022/04/26 06:53:08;;;;;;;10.67;7.67;;;;;;;11.15;80.11;98531.34;5113721;28;42300;-76
2022/04/26 06:55:36;;;;;;;12.03;8.87;;;;;;;11.10;80.00;98517.59;5129638;27;41378;-76
2022/04/26 06:58:06;;;;;;;10.47;8.37;;;;;;;11.19;79.96;98536.44;5111478;28;43230;-79
2022/04/26 07:00:34;;;;;;;12.07;8.33;;;;;;;11.13;80.05;98511.19;5111228;28;44408;-77
2022/04/26 07:03:02;;;;;;;12.00;8.83;;;;;;;11.30;79.73;98536.53;5115464;28;42025;-76
2022/04/26 07:05:29;;;;;;;12.63;8.87;;;;;;;11.28;79.68;98538.44;5099837;28;39093;-77
2022/04/26 07:07:57;;;;;;;11.10;8.60;;;;;;;11.25;79.67;98526.22;5113109;28;41871;-77
2022/04/26 07:10:28;;;;;;;11.83;7.93;;;;;;;11.26;79.85;98529.72;5113243;28;44092;-78
2022/04/26 07:12:56;;;;;;;12.50;9.23;;;;;;;11.30;79.77;98540.03;5118913;28;42184;-78
2022/04/26 07:15:26;;;;;;;11.03;8.10;;;;;;;11.32;79.32;98542.56;5116352;28;41105;-77
2022/04/26 07:17:54;;;;;;;12.97;9.37;;;;;;;11.36;79.92;98538.75;5110761;28;41804;-78
2022/04/26 07:20:22;;;;;;;12.27;8.80;;;;;;;11.32;79.34;98542.56;5087301;28;43832;-77
2022/04/26 07:22:49;;;;;;;10.47;8.03;;;;;;;11.33;79.42;98531.00;5090471;28;41765;-78
2022/04/26 07:25:18;;;;;;;13.83;8.87;;;;;;;11.38;79.78;98542.13;5098851;28;38943;-78
2022/04/26 07:27:46;;;;;;;11.67;8.80;;;;;;;11.42;79.43;98540.97;5073792;28;40589;-78
2022/04/26 07:30:13;;;;;;;11.37;7.90;;;;;;;11.37;79.53;98530.69;5090040;28;41470;-79
2022/04/26 07:35:27;;;;;;;12.80;8.87;;;;;;;11.29;79.56;98518.91;5088109;28;40010;-79
2022/04/26 07:37:55;;;;;;;11.50;8.13;;;;;;;11.45;79.04;98554.00;5090800;28;42063;-80
2022/04/26 07:40:23;;;;;;;12.80;8.93;;;;;;;11.44;79.17;98562.91;5106837;28;43607;-81
2022/04/26 07:42:50;;;;;;;10.87;8.50;;;;;;;11.40;79.17;98564.06;5092249;28;42497;-81
2022/04/26 07:45:18;;;;;;;12.33;9.17;;;;;;;11.34;79.22;98551.28;5110996;28;39402;-79
2022/04/26 07:47:47;;;;;;;11.37;8.13;;;;;;;11.44;79.15;98570.88;5111289;28;41719;-79
2022/04/26 07:50:15;;;;;;;13.80;9.27;;;;;;;11.48;79.21;98575.00;5111093;28;42648;-80
2022/04/26 07:52:43;;;;;;;12.43;8.50;;;;;;;11.55;79.24;98578.06;5094433;28;40888;-81
2022/04/26 07:55:11;;;;;;;10.27;7.93;;;;;;;11.57;78.90;98577.00;5109846;28;40284;-79
2022/04/26 07:57:39;;;;;;;12.37;8.87;;;;;;;11.46;79.08;98561.00;5111491;28;43500;-82
2022/04/26 08:00:09;;;;;;;11.20;8.37;;;;;;;11.35;78.96;98545.00;5111618;28;42913;-81
2022/04/26 08:02:42;;;;;;;13.00;8.87;;;;;;;11.53;79.09;98583.47;5074163;28;41217;-86
2022/04/26 08:05:14;;;;;;;15.37;9.33;;;;;;;11.44;78.93;98578.81;5109826;28;40169;-85
2022/04/26 08:07:41;;;;;;;10.80;8.70;;;;;;;11.47;78.59;98589.22;5095478;28;40756;-82
2022/04/26 08:10:11;;;;;;;11.63;8.63;;;;;;;11.48;78.84;98596.22;5094529;28;41685;-81
2022/04/26 08:12:39;;;;;;;11.10;8.47;;;;;;;11.41;78.41;98579.03;5093862;28;40780;-81
2022/04/26 08:15:08;;;;;;;14.03;8.50;;;;;;;11.49;78.51;98593.47;5113041;27;39077;-83
2022/04/26 08:17:35;;;;;;;12.07;8.60;;;;;;;11.54;78.60;98585.16;5094757;28;41756;-82
2022/04/26 08:20:06;;;;;;;12.03;8.80;;;;;;;11.69;78.50;98593.84;5110933;28;42648;-81
2022/04/26 08:22:35;;;;;;;10.97;8.13;;;;;;;11.76;78.23;98580.06;5111384;28;41707;-80
2022/04/26 08:27:48;;;;;;;11.63;9.13;;;;;;;12.08;78.52;98611.41;5110802;28;41757;-79
2022/04/26 08:30:16;;;;;;;10.73;7.93;;;;;;;12.21;77.88;98612.22;5110340;28;43120;-83
2022/04/26 08:32:45;;;;;;;12.07;9.00;;;;;;;12.33;77.62;98611.31;5094246;28;42267;-81
2022/04/26 08:35:16;;;;;;;12.83;8.23;;;;;;;12.49;77.01;98606.53;5090138;28;38893;-80
2022/04/26 08:37:45;;;;;;;11.87;8.43;;;;;;;12.56;77.04;98591.84;5073865;28;40275;-80
2022/04/26 08:40:13;;;;;;;11.80;8.53;;;;;;;12.76;76.19;98610.75;5109635;28;43391;-84
2022/04/26 08:42:43;;;;;;;11.47;7.97;;;;;;;12.89;76.49;98614.19;5110832;28;42347;-84
2022/04/26 08:45:12;;;;;;;11.07;7.80;;;;;;;13.04;76.14;98597.06;5089552;28;38897;-85
2022/04/26 08:53:15;;;;;;;11.07;7.80;;;;;;;13.63;75.01;98600.44;5078509;28;41580;-80
2022/04/26 08:55:45;;;;;;;9.90;7.60;;;;;;;13.90;74.29;98613.38;5111738;28;41893;-81
2022/04/26 08:58:14;;;;;;;9.60;8.13;;;;;;;14.05;73.93;98611.28;5112788;28;42721;-81
2022/04/26 09:01:04;;;;;;;10.60;8.00;;;;;;;14.25;73.00;98618.50;5115755;28;42552;-83
2022/04/26 09:03:33;;;;;;;9.23;7.43;;;;;;;14.56;73.33;98622.22;5093464;28;42393;-84
2022/04/26 09:06:07;;;;;;;8.83;6.97;;;;;;;14.71;72.81;98599.59;5077533;28;40660;-84
2022/04/26 09:08:37;;;;;;;9.50;7.43;;;;;;;14.86;71.94;98599.28;5076830;28;43359;-85
2022/04/26 09:11:19;;;;;;;8.53;7.33;;;;;;;14.80;70.48;98614.00;5094180;28;42941;-83
2022/04/26 09:13:47;;;;;;;8.90;7.40;;;;;;;14.58;70.17;98625.59;5080459;28;41328;-83
2022/04/26 09:16:20;;;;;;;8.83;7.10;;;;;;;14.50;70.39;98625.38;5111251;28;40868;-82
2022/04/26 09:18:53;;;;;;;9.77;7.60;;;;;;;14.35;70.61;98613.25;5083725;28;40809;-82
2022/04/26 09:21:22;;;;;;;10.00;7.20;;;;;;;14.43;70.61;98632.19;5111528;28;42924;-80
2022/04/26 09:23:52;;;;;;;8.07;6.77;;;;;;;14.37;70.51;98628.16;5113587;28;42424;-82
2022/04/26 09:26:20;;;;;;;8.63;7.23;;;;;;;14.26;70.27;98632.66;5097256;28;40203;-81
2022/04/26 09:28:51;;;;;;;9.30;7.40;;;;;;;14.12;69.89;98639.09;5113378;28;41854;-83
2022/04/26 09:31:21;;;;;;;8.27;6.50;;;;;;;13.97;70.27;98622.53;5114418;28;42742;-81
2022/04/26 09:33:51;;;;;;;8.27;6.47;;;;;;;13.99;70.65;98625.09;5109347;28;41101;-80
2022/04/26 09:36:21;;;;;;;7.47;5.43;;;;;;;14.02;70.60;98631.00;5113652;28;39848;-81
2022/04/26 09:38:56;;;;;;;7.43;6.37;;;;;;;14.13;70.60;98642.63;5092974;28;42266;-81
2022/04/26 09:41:25;;;;;;;7.17;6.03;;;;;;;14.06;70.57;98628.97;5091393;28;42723;-82
2022/04/26 09:43:57;;;;;;;6.93;6.07;;;;;;;14.09;70.80;98630.53;5083678;28;42114;-84
2022/04/26 09:46:25;;;;;;;6.77;5.93;;;;;;;14.17;70.41;98644.06;5092170;28;39742;-79
2022/04/26 09:48:54;;;;;;;6.77;5.70;;;;;;;14.05;70.05;98645.06;5101919;28;42814;-81
2022/04/26 09:51:22;;;;;;;6.43;5.73;;;;;;;13.99;70.10;98665.88;5113420;28;43003;-79
2022/04/26 09:53:49;;;;;;;7.23;5.63;;;;;;;13.86;70.48;98665.16;5095270;28;42290;-81
2022/04/26 09:56:24;;;;;;;6.77;5.80;;;;;;;13.72;70.46;98662.75;5113194;28;39007;-80
2022/04/26 09:58:55;;;;;;;6.60;5.87;;;;;;;13.62;70.79;98669.72;5113139;28;44453;-84
2022/04/26 10:01:27;;;;;;;7.43;6.20;;;;;;;13.35;70.72;98663.91;5108663;28;43642;-85
2022/04/26 10:04:02;;;;;;;5.97;5.37;;;;;;;13.22;71.25;98670.16;5094041;28;41860;-81
2022/04/26 10:06:34;;;;;;;6.77;5.77;;;;;;;13.13;71.53;98686.75;5100099;28;39081;-83
2022/04/26 10:09:03;;;;;;;7.27;6.47;;;;;;;12.92;71.88;98667.13;5077622;27;40688;-84
2022/04/26 10:11:32;;;;;;;7.47;6.40;;;;;;;12.97;71.98;98691.56;5093593;27;44738;-80
2022/04/26 10:14:04;;;;;;;6.70;5.43;;;;;;;12.87;72.27;98691.38;5098989;27;41286;-81
2022/04/26 10:16:33;;;;;;;6.47;5.80;;;;;;;12.67;72.60;98677.88;5116060;27;39372;-81
2022/04/26 10:19:07;;;;;;;8.10;5.43;;;;;;;12.72;72.93;98697.84;5092363;28;40886;-80
2022/04/26 10:21:47;;;;;;;7.60;6.67;;;;;;;12.63;73.34;98689.69;5095511;28;42751;-80
2022/04/26 10:24:19;;;;;;;7.97;6.57;;;;;;;12.59;73.13;98681.09;5108941;28;42443;-80
2022/04/26 10:26:50;;;;;;;6.83;5.37;;;;;;;12.61;73.23;98686.31;5094379;28;38916;-80
2022/04/26 10:29:22;;;;;;;7.10;6.00;;;;;;;12.56;73.61;98674.22;5107734;27;41697;-80
2022/04/26 10:31:59;;;;;;;6.80;6.10;;;;;;;12.52;74.03;98659.44;5090671;28;42073;-80
2022/04/26 10:34:30;;;;;;;6.27;5.53;;;;;;;12.78;74.01;98680.59;5109363;27;43344;-79
2022/04/26 10:37:00;;;;;;;6.47;5.37;;;;;;;12.91;73.69;98679.56;5094133;28;42308;-79
2022/04/26 10:39:34;;;;;;;7.43;6.23;;;;;;;12.99;73.78;98688.75;5113387;27;42078;-81
2022/04/26 10:42:07;;;;;;;5.97;5.37;;;;;;;13.06;73.45;98682.88;5109504;28;42388;-82
2022/04/26 10:44:43;;;;;;;6.13;5.33;;;;;;;13.26;73.35;98687.56;5108606;28;43237;-80
2022/04/26 10:47:29;;;;;;;6.03;5.43;;;;;;;13.44;73.21;98689.78;5094365;28;38807;-79
2022/04/26 10:49:59;;;;;;;6.93;5.47;;;;;;;13.56;72.71;98696.81;5108241;28;40834;-79
2022/04/26 10:52:51;;;;;;;6.60;5.90;;;;;;;13.63;72.00;98717.50;5094328;28;43166;-80
2022/04/26 10:55:26;;;;;;;6.90;5.10;;;;;;;13.63;71.95;98706.00;5085338;28;40713;-81
2022/04/26 10:57:57;;;;;;;5.80;5.20;;;;;;;13.67;71.31;98707.47;5094905;28;40048;-80
2022/04/26 11:00:34;;;;;;;6.87;5.83;;;;;;;13.66;71.21;98705.78;5108570;28;41862;-81
2022/04/26 11:03:04;;;;;;;5.10;4.60;;;;;;;13.59;71.34;98689.47;5093409;28;42725;-81
2022/04/26 11:05:34;;;;;;;5.33;4.83;;;;;;;13.79;71.27;98706.53;5108660;28;42204;-82
2022/04/26 11:08:04;;;;;;;6.27;4.97;;;;;;;13.88;70.76;98689.84;5077999;28;38658;-81
2022/04/26 11:11:00;;;;;;;5.97;5.37;;;;;;;14.30;70.70;98704.22;5094666;28;41022;-84
2022/04/26 11:13:37;;;;;;;5.57;4.80;;;;;;;14.72;69.60;98715.06;5111154;27;43630;-85
2022/04/26 11:16:14;;;;;;;5.10;4.50;;;;;;;14.84;68.14;98716.72;5096739;28;41284;-82
2022/04/26 11:18:43;;;;;;;5.13;4.23;;;;;;;14.91;68.63;98725.09;5090519;28;39996;-80
2022/04/26 11:21:14;;;;;;;6.07;4.93;;;;;;;14.88;68.62;98707.50;5094416;28;41010;-82
2022/04/26 11:29:24;;;;;;;6.03;4.57;;;;;;;14.76;67.70;98707.69;5071219;28;41213;-80
2022/04/26 11:31:52;;;;;;;4.20;3.77;;;;;;;14.65;67.45;98705.88;5104590;28;41476;-79
2022/04/26 11:34:19;;;;;;;4.90;4.20;;;;;;;14.60;68.38;98706.25;5093739;28;41201;-83
2022/04/26 11:36:50;;;;;;;4.43;4.03;;;;;;;14.54;68.57;98701.44;5094158;28;41970;-80
2022/04/26 11:39:18;;;;;;;5.17;4.67;;;;;;;14.63;68.83;98711.34;5090336;28;40276;-83
2022/04/26 11:41:45;;;;;;;4.60;3.97;;;;;;;14.47;68.66;98686.91;5093049;28;40889;-82
2022/04/26 11:44:13;;;;;;;4.27;3.83;;;;;;;14.64;68.73;98705.03;5093786;28;42898;-83
2022/04/26 11:47:00;;;;;;;4.30;3.90;;;;;;;14.89;67.66;98721.69;5093051;28;41445;-79
2022/04/26 11:49:39;;;;;;;4.90;4.40;;;;;;;15.06;67.51;98721.16;5107727;28;40957;-80
2022/04/26 11:52:07;;;;;;;4.30;3.60;;;;;;;15.12;67.36;98709.13;5108697;28;41690;-81
2022/04/26 11:54:35;;;;;;;3.40;3.10;;;;;;;15.35;66.11;98737.38;5092066;28;42427;-80
2022/04/26 11:57:04;;;;;;;3.90;3.60;;;;;;;15.42;65.44;98741.25;5109631;28;44183;-79
2022/04/26 11:59:34;;;;;;;4.27;3.73;;;;;;;15.42;66.30;98722.56;5093026;28;38928;-82
2022/04/26 12:02:04;;;;;;;3.90;3.50;;;;;;;15.61;66.11;98740.56;5109765;28;42464;-81
2022/04/26 12:04:32;;;;;;;3.83;3.33;;;;;;;15.67;65.88;98710.69;5093160;28;41588;-83
2022/04/26 12:07:00;;;;;;;3.47;3.17;;;;;;;16.15;65.50;98719.78;5093344;28;43330;-84
2022/04/26 12:09:29;;;;;;;3.87;3.53;;;;;;;16.61;65.22;98734.44;5093823;28;40065;-83
2022/04/26 12:12:06;;;;;;;3.40;3.10;;;;;;;16.71;61.69;98743.34;5093725;28;41598;-84
2022/04/26 12:14:37;;;;;;;3.77;3.47;;;;;;;16.79;62.29;98734.66;5093114;27;41876;-85
2022/04/26 12:17:16;;;;;;;4.03;3.63;;;;;;;16.80;62.20;98726.50;5098180;28;41922;-87
2022/04/26 12:19:50;;;;;;;3.87;3.53;;;;;;;16.95;62.26;98742.13;5077333;28;41043;-85
2022/04/26 12:22:19;;;;;;;4.10;3.70;;;;;;;17.11;62.47;98753.97;5109049;28;43239;-87
2022/04/26 12:24:48;;;;;;;5.20;3.63;;;;;;;17.16;62.03;98753.56;5093108;28;42670;-87
2022/04/26 12:27:19;;;;;;;4.07;3.67;;;;;;;17.23;62.05;98752.00;5096884;28;40912;-80
2022/04/26 12:29:49;;;;;;;4.07;3.67;;;;;;;17.44;61.69;98755.38;5075445;28;38910;-80
2022/04/26 12:32:19;;;;;;;4.47;3.97;;;;;;;17.57;61.30;98749.75;5114407;28;41859;-80
2022/04/26 12:34:49;;;;;;;4.20;3.80;;;;;;;17.39;61.34;98728.22;5096301;28;44236;-84
2022/04/26 12:37:21;;;;;;;3.43;3.13;;;;;;;17.40;61.43;98756.69;5097441;28;42304;-84
2022/04/26 12:39:50;;;;;;;3.03;2.73;;;;;;;17.16;60.56;98756.25;5113136;28;39934;-82
2022/04/26 12:42:30;;;;;;;5.83;3.77;;;;;;;17.00;61.32;98759.47;5097204;28;43530;-84
2022/04/26 12:44:59;;;;;;;3.30;3.00;;;;;;;16.80;61.33;98747.91;5096243;28;41665;-84
2022/04/26 12:50:33;;;;;;;3.60;3.30;;;;;;;16.61;61.41;98763.84;5096206;28;39462;-85
2022/04/26 12:53:04;;;;;;;3.00;2.70;;;;;;;16.70;61.19;98749.69;5096836;28;40909;-84
2022/04/26 12:55:34;;;;;;;3.00;2.70;;;;;;;17.04;60.90;98752.84;5113478;27;41774;-83
2022/04/26 12:58:03;;;;;;;3.07;2.73;;;;;;;17.27;59.85;98748.09;5095915;28;42033;-79
2022/04/26 13:00:31;;;;;;;2.87;2.57;;;;;;;17.67;58.79;98776.56;5096139;28;38837;-85
2022/04/26 13:03:03;;;;;;;2.90;2.40;;;;;;;17.76;58.89;98744.41;5096534;28;40691;-83
2022/04/26 13:05:37;;;;;;;2.40;2.20;;;;;;;18.00;57.95;98777.91;5096208;28;42021;-82
2022/04/26 13:08:05;;;;;;;2.13;1.93;;;;;;;18.02;57.76;98787.50;5110343;28;42783;-82
2022/04/26 13:10:33;;;;;;;1.40;1.30;;;;;;;17.91;56.87;98775.13;5113387;28;41703;-87
2022/04/26 13:13:02;;;;;;;2.20;1.80;;;;;;;18.05;56.92;98787.19;5113455;28;41670;-85
2022/04/26 13:15:29;;;;;;;3.03;2.10;;;;;;;18.18;56.92;98793.09;5095968;28;42790;-81
2022/04/26 13:17:59;;;;;;;2.50;2.30;;;;;;;18.39;56.49;98800.09;5113206;28;42968;-84
2022/04/26 13:20:28;;;;;;;2.23;2.07;;;;;;;18.54;55.47;98785.22;5113093;28;38878;-79
2022/04/26 13:22:56;;;;;;;3.30;2.40;;;;;;;19.01;54.77;98797.59;5113080;28;40911;-81
2022/04/26 13:25:24;;;;;;;2.67;2.47;;;;;;;19.35;54.40;98799.59;5095704;28;43250;-80
2022/04/26 13:27:51;;;;;;;3.37;2.70;;;;;;;19.64;53.09;98815.53;5113394;28;41287;-83
2022/04/26 13:30:19;;;;;;;3.17;2.87;;;;;;;19.73;53.48;98793.97;5095911;28;38899;-83
2022/04/26 13:32:47;;;;;;;2.60;2.27;;;;;;;19.76;51.68;98808.09;5096089;28;40946;-83
2022/04/26 13:35:15;;;;;;;2.90;2.17;;;;;;;19.66;51.52;98808.16;5095014;28;41545;-86
2022/04/26 13:37:46;;;;;;;4.00;3.03;;;;;;;19.48;51.52;98799.22;5095301;28;41328;-84
2022/04/26 13:40:14;;;;;;;3.60;2.40;;;;;;;19.30;51.96;98799.22;5095501;28;39847;-83
2022/04/26 13:42:42;;;;;;;3.00;2.60;;;;;;;19.41;52.74;98808.91;5095944;28;40580;-88
2022/04/26 13:45:10;;;;;;;2.60;2.40;;;;;;;19.44;52.44;98809.44;5099819;28;41791;-83
2022/04/26 13:47:38;;;;;;;4.07;2.77;;;;;;;19.33;52.19;98813.19;5117229;27;43076;-85
2022/04/26 13:50:07;;;;;;;3.90;3.10;;;;;;;19.12;53.09;98787.63;5112998;28;40978;-83
2022/04/26 13:52:35;;;;;;;3.30;2.97;;;;;;;19.20;53.09;98803.81;5096391;28;42252;-83
2022/04/26 13:55:06;;;;;;;4.43;3.03;;;;;;;19.18;51.64;98798.59;5112214;28;42629;-84
2022/04/26 13:57:33;;;;;;;3.53;2.83;;;;;;;19.30;51.87;98807.25;5095371;28;41225;-84
2022/04/26 14:00:02;;;;;;;4.23;2.97;;;;;;;19.30;51.54;98810.78;5094981;28;41230;-82
2022/04/26 14:02:41;;;;;;;4.33;3.10;;;;;;;19.36;51.03;98820.09;5113096;28;40572;-84
2022/04/26 14:05:10;;;;;;;4.67;3.57;;;;;;;19.44;50.74;98804.06;5111883;28;41681;-84
2022/04/26 14:07:37;;;;;;;4.37;3.60;;;;;;;19.83;50.90;98825.25;5095635;28;41135;-82
2022/04/26 14:10:08;;;;;;;4.67;3.57;;;;;;;20.10;51.23;98822.47;5111950;28;40218;-83
2022/04/26 14:12:36;;;;;;;4.73;3.77;;;;;;;20.26;50.48;98822.59;5112686;28;41613;-87
2022/04/26 14:23:19;;;;;;;4.13;3.73;;;;;;;19.96;50.53;98809.59;5111867;28;42648;-82
2022/04/26 14:25:50;;;;;;;4.37;3.90;;;;;;;19.73;50.98;98806.53;5111877;28;41814;-83
2022/04/26 14:28:18;;;;;;;4.60;3.57;;;;;;;19.56;51.11;98821.66;5094991;28;41132;-85
2022/04/26 14:30:45;;;;;;;4.30;3.87;;;;;;;19.38;51.10;98810.91;5112635;28;38826;-83
2022/04/26 14:33:13;;;;;;;3.63;3.33;;;;;;;19.24;51.81;98808.72;5094656;28;40758;-91
2022/04/26 14:35:41;;;;;;;3.57;3.10;;;;;;;19.18;50.73;98813.84;5094103;28;42755;-84
2022/04/26 14:38:10;;;;;;;4.10;3.13;;;;;;;19.06;51.38;98798.94;5094588;28;41826;-87
2022/04/26 14:40:38;;;;;;;4.17;3.63;;;;;;;19.06;51.45;98812.38;5095620;28;38583;-84
2022/04/26 14:43:09;;;;;;;3.57;3.23;;;;;;;18.94;51.58;98799.16;5112887;28;41664;-88
2022/04/26 14:45:44;;;;;;;3.60;3.30;;;;;;;18.98;51.26;98797.03;5111705;28;43613;-84
2022/04/26 14:48:14;;;;;;;5.43;3.00;;;;;;;18.89;50.66;98793.41;5093039;27;40878;-88
2022/04/26 14:50:42;;;;;;;3.50;3.20;;;;;;;18.70;51.12;98788.13;5093428;28;39935;-85
2022/04/26 14:53:09;;;;;;;3.33;3.03;;;;;;;18.70;52.05;98798.88;5112565;28;41685;-86
2022/04/26 14:55:38;;;;;;;3.63;3.13;;;;;;;18.66;52.02;98808.22;5112351;28;42450;-83
2022/04/26 14:58:09;;;;;;;3.20;2.90;;;;;;;18.57;52.50;98809.06;5093939;28;41347;-82
2022/04/26 15:00:37;;;;;;;2.87;2.30;;;;;;;18.36;51.42;98824.53;5094632;28;39487;-82
2022/04/26 15:03:05;;;;;;;3.10;2.80;;;;;;;18.23;51.03;98836.41;5111736;28;42465;-85
2022/04/26 15:05:33;;;;;;;2.80;2.50;;;;;;;18.11;51.63;98821.47;5111883;28;43709;-86
2022/04/26 15:10:45;;;;;;;3.63;2.67;;;;;;;18.24;52.60;98811.28;5094501;28;39219;-86
2022/04/26 15:18:45;;;;;;;2.47;2.27;;;;;;;18.13;52.54;98832.91;5089127;28;42410;-82
2022/04/26 15:21:13;;;;;;;2.57;2.33;;;;;;;18.09;53.03;98841.38;5094055;28;39982;-84
2022/04/26 15:23:41;;;;;;;2.50;2.30;;;;;;;18.07;52.92;98844.19;5093734;28;43510;-80
2022/04/26 15:26:11;;;;;;;2.70;2.50;;;;;;;18.28;52.85;98842.19;5110949;28;42711;-84
2022/04/26 15:28:41;;;;;;;2.87;2.67;;;;;;;18.36;51.33;98844.13;5092660;28;41175;-85
2022/04/26 15:31:10;;;;;;;3.23;2.33;;;;;;;18.56;51.88;98845.75;5111171;28;39800;-83
2022/04/26 15:33:38;;;;;;;2.53;2.33;;;;;;;18.56;51.66;98835.03;5110034;28;41699;-82
2022/04/26 15:36:08;;;;;;;3.13;2.53;;;;;;;18.29;51.73;98801.00;5110684;28;42941;-82
2022/04/26 15:38:36;;;;;;;2.80;2.60;;;;;;;18.36;51.62;98837.94;5093097;28;41328;-81
2022/04/26 15:41:05;;;;;;;2.40;2.20;;;;;;;18.35;52.66;98842.44;5094478;28;39870;-85
2022/04/26 15:43:33;;;;;;;2.30;2.13;;;;;;;18.21;52.14;98826.81;5094316;28;43010;-84
2022/04/26 15:46:05;;;;;;;3.27;2.70;;;;;;;18.14;52.75;98828.38;5094211;28;41865;-89
2022/04/26 15:48:37;;;;;;;3.67;2.30;;;;;;;17.94;52.12;98823.03;5083772;28;42221;-86
2022/04/26 15:51:05;;;;;;;2.17;2.00;;;;;;;18.02;52.27;98850.97;5108734;28;40710;-82
2022/04/26 15:53:33;;;;;;;2.50;2.30;;;;;;;17.87;52.46;98850.56;5092904;28;40816;-83
2022/04/26 15:56:01;;;;;;;2.00;1.90;;;;;;;17.66;52.33;98855.22;5083826;28;41716;-82